Aviation Digital Data Service (ADDS)

Output produced by METARs form (0603 UTC 21 January 2019)
found at http://www.aviationweather.gov/metar/data/
 
METAR text: VIAR 210500Z VRB02KT 3000 BR SCT030 OVC080 13/12 Q1017 TEMPO TSRA
Conditions at: VIAR (AMRITSAR , IN) observed 0500 UTC 21 January 2019
Temperature: 13.0°C (55°F)
Dewpoint: 12.0°C (54°F) [RH = 94%]
Pressure (altimeter): 30.03 inches Hg (1017.0 mb)
Winds: variable direction winds at 2 MPH (2 knots; 1.0 m/s)
Visibility: 1.86 miles (2.99 km)
Ceiling: 8000 feet AGL
Clouds: scattered clouds at 3000 feet AGL
overcast cloud deck at 8000 feet AGL
Weather: BR  (mist)

METAR text: VIAR 210430Z VRB02KT 3000 DZ SCT030 FEW035CB OVC080 13/12 Q1016 NOSIG
Conditions at: VIAR (AMRITSAR , IN) observed 0430 UTC 21 January 2019
Temperature: 13.0°C (55°F)
Dewpoint: 12.0°C (54°F) [RH = 94%]
Pressure (altimeter): 30.00 inches Hg (1016.0 mb)
Winds: variable direction winds at 2 MPH (2 knots; 1.0 m/s)
Visibility: 1.86 miles (2.99 km)
Ceiling: 8000 feet AGL
Clouds: scattered clouds at 3000 feet AGL
few clouds at 3500 feet AGL
overcast cloud deck at 8000 feet AGL
Weather: DZ  (moderate drizzle)

METAR text: VIAR 210400Z VRB03KT 3000 DZ SCT030 FEW035CB OVC080 13/12 Q1016 NOSIG
Conditions at: VIAR (AMRITSAR , IN) observed 0400 UTC 21 January 2019
Temperature: 13.0°C (55°F)
Dewpoint: 12.0°C (54°F) [RH = 94%]
Pressure (altimeter): 30.00 inches Hg (1016.0 mb)
Winds: variable direction winds at 3 MPH (3 knots; 1.5 m/s)
Visibility: 1.86 miles (2.99 km)
Ceiling: 8000 feet AGL
Clouds: scattered clouds at 3000 feet AGL
few clouds at 3500 feet AGL
overcast cloud deck at 8000 feet AGL
Weather: DZ  (moderate drizzle)

METAR text: VIAR 210330Z VRB04KT 3000 DZ SCT030 FEW035CB OVC080 13/12 Q1016 NOSIG
Conditions at: VIAR (AMRITSAR , IN) observed 0330 UTC 21 January 2019
Temperature: 13.0°C (55°F)
Dewpoint: 12.0°C (54°F) [RH = 94%]
Pressure (altimeter): 30.00 inches Hg (1016.0 mb)
Winds: variable direction winds at 5 MPH (4 knots; 2.1 m/s)
Visibility: 1.86 miles (2.99 km)
Ceiling: 8000 feet AGL
Clouds: scattered clouds at 3000 feet AGL
few clouds at 3500 feet AGL
overcast cloud deck at 8000 feet AGL
Weather: DZ  (moderate drizzle)

METAR text: VIAR 210300Z 06006KT 3000 -TSRA SCT030 FEW035CB OVC080 12/11 Q1016 NOSIG
Conditions at: VIAR (AMRITSAR , IN) observed 0300 UTC 21 January 2019
Temperature: 12.0°C (54°F)
Dewpoint: 11.0°C (52°F) [RH = 94%]
Pressure (altimeter): 30.00 inches Hg (1016.0 mb)
Winds: from the ENE (60 degrees) at 7 MPH (6 knots; 3.1 m/s)
Visibility: 1.86 miles (2.99 km)
Ceiling: 8000 feet AGL
Clouds: scattered clouds at 3000 feet AGL
few clouds at 3500 feet AGL
overcast cloud deck at 8000 feet AGL
Weather: -TSRA  (light rain associated with thunderstorm(s))

METAR text: VIAR 210230Z 27006KT 3500 -TSRA SCT030 FEW035CB OVC080 12/12 Q1016 NOSIG
Conditions at: VIAR (AMRITSAR , IN) observed 0230 UTC 21 January 2019
Temperature: 12.0°C (54°F)
Dewpoint: 12.0°C (54°F) [RH = 100%]
Pressure (altimeter): 30.00 inches Hg (1016.0 mb)
Winds: from the W (270 degrees) at 7 MPH (6 knots; 3.1 m/s)
Visibility: 2.17 miles (3.49 km)
Ceiling: 8000 feet AGL
Clouds: scattered clouds at 3000 feet AGL
few clouds at 3500 feet AGL
overcast cloud deck at 8000 feet AGL
Weather: -TSRA  (light rain associated with thunderstorm(s))

METAR text: VIAR 210200Z 19005KT 2800 -TSRA SCT030 FEW035CB OVC080 12/12 Q1015 TEMPO 29010G20KT -TSRA
Conditions at: VIAR (AMRITSAR , IN) observed 0200 UTC 21 January 2019
Temperature: 12.0°C (54°F)
Dewpoint: 12.0°C (54°F) [RH = 100%]
Pressure (altimeter): 29.97 inches Hg (1015.0 mb)
Winds: from the S (190 degrees) at 6 MPH (5 knots; 2.6 m/s)
Visibility: 1.74 miles (2.80 km)
Ceiling: 8000 feet AGL
Clouds: scattered clouds at 3000 feet AGL
few clouds at 3500 feet AGL
overcast cloud deck at 8000 feet AGL
Weather: -TSRA  (light rain associated with thunderstorm(s))

METAR text: VIAR 210130Z 33006KT 3500 -TSRA SCT030 FEW035CB OVC080 12/12 Q1014 TEMPO 29010G20KT -TSRA
Conditions at: VIAR (AMRITSAR , IN) observed 0130 UTC 21 January 2019
Temperature: 12.0°C (54°F)
Dewpoint: 12.0°C (54°F) [RH = 100%]
Pressure (altimeter): 29.94 inches Hg (1014.0 mb)
Winds: from the NNW (330 degrees) at 7 MPH (6 knots; 3.1 m/s)
Visibility: 2.17 miles (3.49 km)
Ceiling: 8000 feet AGL
Clouds: scattered clouds at 3000 feet AGL
few clouds at 3500 feet AGL
overcast cloud deck at 8000 feet AGL
Weather: -TSRA  (light rain associated with thunderstorm(s))

METAR text: VIAR 210100Z 00000KT 3500 TS SCT030 FEW035CB OVC080 12/12 Q1015 TEMPO 29010G20KT -TSRA
Conditions at: VIAR (AMRITSAR , IN) observed 0100 UTC 21 January 2019
Temperature: 12.0°C (54°F)
Dewpoint: 12.0°C (54°F) [RH = 100%]
Pressure (altimeter): 29.97 inches Hg (1015.0 mb)
Winds: calm
Visibility: 2.17 miles (3.49 km)
Ceiling: 8000 feet AGL
Clouds: scattered clouds at 3000 feet AGL
few clouds at 3500 feet AGL
overcast cloud deck at 8000 feet AGL
Weather: TS  (thunderstorm)

METAR text: VIAR 210030Z 07004KT 3500 BR SCT035 OVC080 12/12 Q1014 NOSIG
Conditions at: VIAR (AMRITSAR , IN) observed 0030 UTC 21 January 2019
Temperature: 12.0°C (54°F)
Dewpoint: 12.0°C (54°F) [RH = 100%]
Pressure (altimeter): 29.94 inches Hg (1014.0 mb)
Winds: from the ENE (70 degrees) at 5 MPH (4 knots; 2.1 m/s)
Visibility: 2.17 miles (3.49 km)
Ceiling: 8000 feet AGL
Clouds: scattered clouds at 3500 feet AGL
overcast cloud deck at 8000 feet AGL
Weather: BR  (mist)

METAR text: VIAR 210000Z 03006KT 3500 BR SCT035 OVC080 12/12 Q1014 NOSIG
Conditions at: VIAR (AMRITSAR , IN) observed 0000 UTC 21 January 2019
Temperature: 12.0°C (54°F)
Dewpoint: 12.0°C (54°F) [RH = 100%]
Pressure (altimeter): 29.94 inches Hg (1014.0 mb)
Winds: from the NNE (30 degrees) at 7 MPH (6 knots; 3.1 m/s)
Visibility: 2.17 miles (3.49 km)
Ceiling: 8000 feet AGL
Clouds: scattered clouds at 3500 feet AGL
overcast cloud deck at 8000 feet AGL
Weather: BR  (mist)

METAR text: VIAR 202330Z 34006KT 3500 BR SCT035 OVC080 12/12 Q1015 NOSIG
Conditions at: VIAR (AMRITSAR , IN) observed 2330 UTC 20 January 2019
Temperature: 12.0°C (54°F)
Dewpoint: 12.0°C (54°F) [RH = 100%]
Pressure (altimeter): 29.97 inches Hg (1015.0 mb)
Winds: from the NNW (340 degrees) at 7 MPH (6 knots; 3.1 m/s)
Visibility: 2.17 miles (3.49 km)
Ceiling: 8000 feet AGL
Clouds: scattered clouds at 3500 feet AGL
overcast cloud deck at 8000 feet AGL
Weather: BR  (mist)

METAR text: VIAR 202300Z 30004KT 3500 BR SCT035 OVC080 12/12 Q1016 NOSIG
Conditions at: VIAR (AMRITSAR , IN) observed 2300 UTC 20 January 2019
Temperature: 12.0°C (54°F)
Dewpoint: 12.0°C (54°F) [RH = 100%]
Pressure (altimeter): 30.00 inches Hg (1016.0 mb)
Winds: from the WNW (300 degrees) at 5 MPH (4 knots; 2.1 m/s)
Visibility: 2.17 miles (3.49 km)
Ceiling: 8000 feet AGL
Clouds: scattered clouds at 3500 feet AGL
overcast cloud deck at 8000 feet AGL
Weather: BR  (mist)

METAR text: VIAR 202230Z 02003KT 3500 -TSRA SCT030 FEW035CB OVC080 13/12 Q1016 NOSIG
Conditions at: VIAR (AMRITSAR , IN) observed 2230 UTC 20 January 2019
Temperature: 13.0°C (55°F)
Dewpoint: 12.0°C (54°F) [RH = 94%]
Pressure (altimeter): 30.00 inches Hg (1016.0 mb)
Winds: from the NNE (20 degrees) at 3 MPH (3 knots; 1.5 m/s)
Visibility: 2.17 miles (3.49 km)
Ceiling: 8000 feet AGL
Clouds: scattered clouds at 3000 feet AGL
few clouds at 3500 feet AGL
overcast cloud deck at 8000 feet AGL
Weather: -TSRA  (light rain associated with thunderstorm(s))

METAR text: VIAR 202200Z 23009KT 3500 -TSRA SCT030 FEW035CB OVC080 13/12 Q1016 NOSIG
Conditions at: VIAR (AMRITSAR , IN) observed 2200 UTC 20 January 2019
Temperature: 13.0°C (55°F)
Dewpoint: 12.0°C (54°F) [RH = 94%]
Pressure (altimeter): 30.00 inches Hg (1016.0 mb)
Winds: from the SW (230 degrees) at 10 MPH (9 knots; 4.6 m/s)
Visibility: 2.17 miles (3.49 km)
Ceiling: 8000 feet AGL
Clouds: scattered clouds at 3000 feet AGL
few clouds at 3500 feet AGL
overcast cloud deck at 8000 feet AGL
Weather: -TSRA  (light rain associated with thunderstorm(s))

METAR text: VIAR 202130Z VRB03KT 3500 -TSRA SCT030 FEW035CB OVC080 13/12 Q1016 NOSIG
Conditions at: VIAR (AMRITSAR , IN) observed 2130 UTC 20 January 2019
Temperature: 13.0°C (55°F)
Dewpoint: 12.0°C (54°F) [RH = 94%]
Pressure (altimeter): 30.00 inches Hg (1016.0 mb)
Winds: variable direction winds at 3 MPH (3 knots; 1.5 m/s)
Visibility: 2.17 miles (3.49 km)
Ceiling: 8000 feet AGL
Clouds: scattered clouds at 3000 feet AGL
few clouds at 3500 feet AGL
overcast cloud deck at 8000 feet AGL
Weather: -TSRA  (light rain associated with thunderstorm(s))

METAR text: VIAR 202100Z 04007KT 3500 -TSRA SCT030 FEW035CB OVC080 13/12 Q1014 NOSIG
Conditions at: VIAR (AMRITSAR , IN) observed 2100 UTC 20 January 2019
Temperature: 13.0°C (55°F)
Dewpoint: 12.0°C (54°F) [RH = 94%]
Pressure (altimeter): 29.94 inches Hg (1014.0 mb)
Winds: from the NE (40 degrees) at 8 MPH (7 knots; 3.6 m/s)
Visibility: 2.17 miles (3.49 km)
Ceiling: 8000 feet AGL
Clouds: scattered clouds at 3000 feet AGL
few clouds at 3500 feet AGL
overcast cloud deck at 8000 feet AGL
Weather: -TSRA  (light rain associated with thunderstorm(s))

METAR text: VIAR 202030Z 04008KT 2000 -TSRA SCT030 FEW035CB OVC080 13/13 Q1015 NOSIG
Conditions at: VIAR (AMRITSAR , IN) observed 2030 UTC 20 January 2019
Temperature: 13.0°C (55°F)
Dewpoint: 13.0°C (55°F) [RH = 100%]
Pressure (altimeter): 29.97 inches Hg (1015.0 mb)
Winds: from the NE (40 degrees) at 9 MPH (8 knots; 4.1 m/s)
Visibility: 1.24 miles (2.00 km)
Ceiling: 8000 feet AGL
Clouds: scattered clouds at 3000 feet AGL
few clouds at 3500 feet AGL
overcast cloud deck at 8000 feet AGL
Weather: -TSRA  (light rain associated with thunderstorm(s))

METAR text: VIAR 202000Z 30012KT 2000 -TSRA SCT030 FEW035CB OVC080 13/10 Q1016 TEMPO 27012G22KT
Conditions at: VIAR (AMRITSAR , IN) observed 2000 UTC 20 January 2019
Temperature: 13.0°C (55°F)
Dewpoint: 10.0°C (50°F) [RH = 82%]
Pressure (altimeter): 30.00 inches Hg (1016.0 mb)
Winds: from the WNW (300 degrees) at 14 MPH (12 knots; 6.2 m/s)
Visibility: 1.24 miles (2.00 km)
Ceiling: 8000 feet AGL
Clouds: scattered clouds at 3000 feet AGL
few clouds at 3500 feet AGL
overcast cloud deck at 8000 feet AGL
Weather: -TSRA  (light rain associated with thunderstorm(s))

METAR text: VIAR 201900Z 28007KT 3000 BR SCT035 BKN090 13/10 Q1015 TEMPO 05012G22KT TSRA FEW035CB OVC080
Conditions at: VIAR (AMRITSAR , IN) observed 1900 UTC 20 January 2019
Temperature: 13.0°C (55°F)
Dewpoint: 10.0°C (50°F) [RH = 82%]
Pressure (altimeter): 29.97 inches Hg (1015.0 mb)
Winds: from the W (280 degrees) at 8 MPH (7 knots; 3.6 m/s)
Visibility: 1.86 miles (2.99 km)
Ceiling: 9000 feet AGL
Clouds: scattered clouds at 3500 feet AGL
broken clouds at 9000 feet AGL
Weather: BR  (mist)

METAR text: VIAR 201830Z 31006KT 3000 BR SCT035 BKN090 12/09 Q1016 TEMPO 05012G22KT TSRA FEW035CB OVC080
Conditions at: VIAR (AMRITSAR , IN) observed 1830 UTC 20 January 2019
Temperature: 12.0°C (54°F)
Dewpoint: 9.0°C (48°F) [RH = 82%]
Pressure (altimeter): 30.00 inches Hg (1016.0 mb)
Winds: from the NW (310 degrees) at 7 MPH (6 knots; 3.1 m/s)
Visibility: 1.86 miles (2.99 km)
Ceiling: 9000 feet AGL
Clouds: scattered clouds at 3500 feet AGL
broken clouds at 9000 feet AGL
Weather: BR  (mist)

METAR text: VIAR 201800Z 27006KT 3000 BR SCT035 BKN090 11/09 Q1017 TEMPO 05012G22KT TSRA FEW035CB OVC080
Conditions at: VIAR (AMRITSAR , IN) observed 1800 UTC 20 January 2019
Temperature: 11.0°C (52°F)
Dewpoint: 9.0°C (48°F) [RH = 87%]
Pressure (altimeter): 30.03 inches Hg (1017.0 mb)
Winds: from the W (270 degrees) at 7 MPH (6 knots; 3.1 m/s)
Visibility: 1.86 miles (2.99 km)
Ceiling: 9000 feet AGL
Clouds: scattered clouds at 3500 feet AGL
broken clouds at 9000 feet AGL
Weather: BR  (mist)

METAR text: VIAR 201700Z 26005KT 3200 BR SCT035 OVC090 11/09 Q1016 NOSIG
Conditions at: VIAR (AMRITSAR , IN) observed 1700 UTC 20 January 2019
Temperature: 11.0°C (52°F)
Dewpoint: 9.0°C (48°F) [RH = 87%]
Pressure (altimeter): 30.00 inches Hg (1016.0 mb)
Winds: from the W (260 degrees) at 6 MPH (5 knots; 2.6 m/s)
Visibility: 1.99 miles (3.20 km)
Ceiling: 9000 feet AGL
Clouds: scattered clouds at 3500 feet AGL
overcast cloud deck at 9000 feet AGL
Weather: BR  (mist)

METAR text: VIAR 201630Z 28005KT 3200 BR SCT035 OVC090 12/09 Q1015 NOSIG
Conditions at: VIAR (AMRITSAR , IN) observed 1630 UTC 20 January 2019
Temperature: 12.0°C (54°F)
Dewpoint: 9.0°C (48°F) [RH = 82%]
Pressure (altimeter): 29.97 inches Hg (1015.0 mb)
Winds: from the W (280 degrees) at 6 MPH (5 knots; 2.6 m/s)
Visibility: 1.99 miles (3.20 km)
Ceiling: 9000 feet AGL
Clouds: scattered clouds at 3500 feet AGL
overcast cloud deck at 9000 feet AGL
Weather: BR  (mist)

METAR text: VIAR 201600Z 05004KT 3200 BR SCT035 OVC090 12/09 Q1015 NOSIG
Conditions at: VIAR (AMRITSAR , IN) observed 1600 UTC 20 January 2019
Temperature: 12.0°C (54°F)
Dewpoint: 9.0°C (48°F) [RH = 82%]
Pressure (altimeter): 29.97 inches Hg (1015.0 mb)
Winds: from the NE (50 degrees) at 5 MPH (4 knots; 2.1 m/s)
Visibility: 1.99 miles (3.20 km)
Ceiling: 9000 feet AGL
Clouds: scattered clouds at 3500 feet AGL
overcast cloud deck at 9000 feet AGL
Weather: BR  (mist)

METAR text: VIAR 201530Z 32004KT 3200 BR SCT035 BKN090 12/09 Q1016 NOSIG
Conditions at: VIAR (AMRITSAR , IN) observed 1530 UTC 20 January 2019
Temperature: 12.0°C (54°F)
Dewpoint: 9.0°C (48°F) [RH = 82%]
Pressure (altimeter): 30.00 inches Hg (1016.0 mb)
Winds: from the NW (320 degrees) at 5 MPH (4 knots; 2.1 m/s)
Visibility: 1.99 miles (3.20 km)
Ceiling: 9000 feet AGL
Clouds: scattered clouds at 3500 feet AGL
broken clouds at 9000 feet AGL
Weather: BR  (mist)

METAR text: VIAR 201500Z 34006KT 3200 BR SCT035 OVC090 13/09 Q1015 NOSIG
Conditions at: VIAR (AMRITSAR , IN) observed 1500 UTC 20 January 2019
Temperature: 13.0°C (55°F)
Dewpoint: 9.0°C (48°F) [RH = 77%]
Pressure (altimeter): 29.97 inches Hg (1015.0 mb)
Winds: from the NNW (340 degrees) at 7 MPH (6 knots; 3.1 m/s)
Visibility: 1.99 miles (3.20 km)
Ceiling: 9000 feet AGL
Clouds: scattered clouds at 3500 feet AGL
overcast cloud deck at 9000 feet AGL
Weather: BR  (mist)

METAR text: VIAR 201430Z 33011KT 3200 BR SCT035 OVC090 13/09 Q1016 TEMPO 32015G25KT 1500 TSRA FEW030CB
Conditions at: VIAR (AMRITSAR , IN) observed 1430 UTC 20 January 2019
Temperature: 13.0°C (55°F)
Dewpoint: 9.0°C (48°F) [RH = 77%]
Pressure (altimeter): 30.00 inches Hg (1016.0 mb)
Winds: from the NNW (330 degrees) at 13 MPH (11 knots; 5.7 m/s)
Visibility: 1.99 miles (3.20 km)
Ceiling: 9000 feet AGL
Clouds: scattered clouds at 3500 feet AGL
overcast cloud deck at 9000 feet AGL
Weather: BR  (mist)

METAR text: VIAR 201400Z 33013KT 2000 BR SCT035 OVC090 13/10 Q1016 TEMPO 32015G25KT 1500 TSRA FEW030CB
Conditions at: VIAR (AMRITSAR , IN) observed 1400 UTC 20 January 2019
Temperature: 13.0°C (55°F)
Dewpoint: 10.0°C (50°F) [RH = 82%]
Pressure (altimeter): 30.00 inches Hg (1016.0 mb)
Winds: from the NNW (330 degrees) at 15 MPH (13 knots; 6.7 m/s)
Visibility: 1.24 miles (2.00 km)
Ceiling: 9000 feet AGL
Clouds: scattered clouds at 3500 feet AGL
overcast cloud deck at 9000 feet AGL
Weather: BR  (mist)

METAR text: VIAR 201330Z 32015KT 2000 BR SCT035 OVC090 14/10 Q1016 TEMPO 32015G25KT 1500 TSRA FEW030CB
Conditions at: VIAR (AMRITSAR , IN) observed 1330 UTC 20 January 2019
Temperature: 14.0°C (57°F)
Dewpoint: 10.0°C (50°F) [RH = 77%]
Pressure (altimeter): 30.00 inches Hg (1016.0 mb)
Winds: from the NW (320 degrees) at 17 MPH (15 knots; 7.7 m/s)
Visibility: 1.24 miles (2.00 km)
Ceiling: 9000 feet AGL
Clouds: scattered clouds at 3500 feet AGL
overcast cloud deck at 9000 feet AGL
Weather: BR  (mist)

METAR text: VIAR 201300Z 30009KT 2000 BR SCT040 OVC100 15/12 Q1016 NOSIG
Conditions at: VIAR (AMRITSAR , IN) observed 1300 UTC 20 January 2019
Temperature: 15.0°C (59°F)
Dewpoint: 12.0°C (54°F) [RH = 82%]
Pressure (altimeter): 30.00 inches Hg (1016.0 mb)
Winds: from the WNW (300 degrees) at 10 MPH (9 knots; 4.6 m/s)
Visibility: 1.24 miles (2.00 km)
Ceiling: 10000 feet AGL
Clouds: scattered clouds at 4000 feet AGL
overcast cloud deck at 10000 feet AGL
Weather: BR  (mist)

METAR text: VIAR 201230Z 31009KT 2000 BR SCT040 OVC100 16/12 Q1015 NOSIG
Conditions at: VIAR (AMRITSAR , IN) observed 1230 UTC 20 January 2019
Temperature: 16.0°C (61°F)
Dewpoint: 12.0°C (54°F) [RH = 77%]
Pressure (altimeter): 29.97 inches Hg (1015.0 mb)
Winds: from the NW (310 degrees) at 10 MPH (9 knots; 4.6 m/s)
Visibility: 1.24 miles (2.00 km)
Ceiling: 10000 feet AGL
Clouds: scattered clouds at 4000 feet AGL
overcast cloud deck at 10000 feet AGL
Weather: BR  (mist)

METAR text: VIAR 201200Z 33007KT 2000 HZ SCT040 OVC100 16/11 Q1015 NOSIG
Conditions at: VIAR (AMRITSAR , IN) observed 1200 UTC 20 January 2019
Temperature: 16.0°C (61°F)
Dewpoint: 11.0°C (52°F) [RH = 72%]
Pressure (altimeter): 29.97 inches Hg (1015.0 mb)
Winds: from the NNW (330 degrees) at 8 MPH (7 knots; 3.6 m/s)
Visibility: 1.24 miles (2.00 km)
Ceiling: 10000 feet AGL
Clouds: scattered clouds at 4000 feet AGL
overcast cloud deck at 10000 feet AGL
Weather: HZ  (haze)

METAR text: VIAR 201130Z 33007KT 2000 HZ SCT040 OVC100 17/12 Q1015 NOSIG
Conditions at: VIAR (AMRITSAR , IN) observed 1130 UTC 20 January 2019
Temperature: 17.0°C (63°F)
Dewpoint: 12.0°C (54°F) [RH = 72%]
Pressure (altimeter): 29.97 inches Hg (1015.0 mb)
Winds: from the NNW (330 degrees) at 8 MPH (7 knots; 3.6 m/s)
Visibility: 1.24 miles (2.00 km)
Ceiling: 10000 feet AGL
Clouds: scattered clouds at 4000 feet AGL
overcast cloud deck at 10000 feet AGL
Weather: HZ  (haze)

METAR text: VIAR 201100Z 36009KT 2000 HZ SCT040 OVC100 17/13 Q1016 NOSIG
Conditions at: VIAR (AMRITSAR , IN) observed 1100 UTC 20 January 2019
Temperature: 17.0°C (63°F)
Dewpoint: 13.0°C (55°F) [RH = 77%]
Pressure (altimeter): 30.00 inches Hg (1016.0 mb)
Winds: from the N (360 degrees) at 10 MPH (9 knots; 4.6 m/s)
Visibility: 1.24 miles (2.00 km)
Ceiling: 10000 feet AGL
Clouds: scattered clouds at 4000 feet AGL
overcast cloud deck at 10000 feet AGL
Weather: HZ  (haze)

METAR text: VIAR 201030Z 29008KT 2200 HZ SCT040 OVC100 19/12 Q1016 NOSIG
Conditions at: VIAR (AMRITSAR , IN) observed 1030 UTC 20 January 2019
Temperature: 19.0°C (66°F)
Dewpoint: 12.0°C (54°F) [RH = 64%]
Pressure (altimeter): 30.00 inches Hg (1016.0 mb)
Winds: from the WNW (290 degrees) at 9 MPH (8 knots; 4.1 m/s)
Visibility: 1.37 miles (2.20 km)
Ceiling: 10000 feet AGL
Clouds: scattered clouds at 4000 feet AGL
overcast cloud deck at 10000 feet AGL
Weather: HZ  (haze)

METAR text: VIAR 201000Z 06006KT 2200 HZ SCT040 OVC100 20/10 Q1016 NOSIG
Conditions at: VIAR (AMRITSAR , IN) observed 1000 UTC 20 January 2019
Temperature: 20.0°C (68°F)
Dewpoint: 10.0°C (50°F) [RH = 53%]
Pressure (altimeter): 30.00 inches Hg (1016.0 mb)
Winds: from the ENE (60 degrees) at 7 MPH (6 knots; 3.1 m/s)
Visibility: 1.37 miles (2.20 km)
Ceiling: 10000 feet AGL
Clouds: scattered clouds at 4000 feet AGL
overcast cloud deck at 10000 feet AGL
Weather: HZ  (haze)

METAR text: VIAR 200900Z 07003KT 2200 HZ SCT040 OVC100 19/10 Q1016 NOSIG
Conditions at: VIAR (AMRITSAR , IN) observed 0900 UTC 20 January 2019
Temperature: 19.0°C (66°F)
Dewpoint: 10.0°C (50°F) [RH = 56%]
Pressure (altimeter): 30.00 inches Hg (1016.0 mb)
Winds: from the ENE (70 degrees) at 3 MPH (3 knots; 1.5 m/s)
Visibility: 1.37 miles (2.20 km)
Ceiling: 10000 feet AGL
Clouds: scattered clouds at 4000 feet AGL
overcast cloud deck at 10000 feet AGL
Weather: HZ  (haze)

METAR text: VIAR 200830Z 07006KT 2200 HZ SCT040 BKN100 19/11 Q1016 BECMG 3000
Conditions at: VIAR (AMRITSAR , IN) observed 0830 UTC 20 January 2019
Temperature: 19.0°C (66°F)
Dewpoint: 11.0°C (52°F) [RH = 60%]
Pressure (altimeter): 30.00 inches Hg (1016.0 mb)
Winds: from the ENE (70 degrees) at 7 MPH (6 knots; 3.1 m/s)
Visibility: 1.37 miles (2.20 km)
Ceiling: 10000 feet AGL
Clouds: scattered clouds at 4000 feet AGL
broken clouds at 10000 feet AGL
Weather: HZ  (haze)

METAR text: VIAR 200800Z 06006KT 2200 HZ SCT040 BKN100 20/09 Q1017 BECMG 3000
Conditions at: VIAR (AMRITSAR , IN) observed 0800 UTC 20 January 2019
Temperature: 20.0°C (68°F)
Dewpoint: 9.0°C (48°F) [RH = 49%]
Pressure (altimeter): 30.03 inches Hg (1017.0 mb)
Winds: from the ENE (60 degrees) at 7 MPH (6 knots; 3.1 m/s)
Visibility: 1.37 miles (2.20 km)
Ceiling: 10000 feet AGL
Clouds: scattered clouds at 4000 feet AGL
broken clouds at 10000 feet AGL
Weather: HZ  (haze)

METAR text: VIAR 200730Z 05003KT 2200 HZ SCT040 BKN100 19/08 Q1017 BECMG 3000
Conditions at: VIAR (AMRITSAR , IN) observed 0730 UTC 20 January 2019
Temperature: 19.0°C (66°F)
Dewpoint: 8.0°C (46°F) [RH = 49%]
Pressure (altimeter): 30.03 inches Hg (1017.0 mb)
Winds: from the NE (50 degrees) at 3 MPH (3 knots; 1.5 m/s)
Visibility: 1.37 miles (2.20 km)
Ceiling: 10000 feet AGL
Clouds: scattered clouds at 4000 feet AGL
broken clouds at 10000 feet AGL
Weather: HZ  (haze)

METAR text: VIAR 200700Z 03004KT 2000 HZ SCT040 BKN100 18/11 Q1018 NOSIG
Conditions at: VIAR (AMRITSAR , IN) observed 0700 UTC 20 January 2019
Temperature: 18.0°C (64°F)
Dewpoint: 11.0°C (52°F) [RH = 64%]
Pressure (altimeter): 30.06 inches Hg (1018.0 mb)
Winds: from the NNE (30 degrees) at 5 MPH (4 knots; 2.1 m/s)
Visibility: 1.24 miles (2.00 km)
Ceiling: 10000 feet AGL
Clouds: scattered clouds at 4000 feet AGL
broken clouds at 10000 feet AGL
Weather: HZ  (haze)

METAR text: VIAR 200630Z VRB02KT 1800 HZ SCT040 BKN100 18/10 Q1019 NOSIG
Conditions at: VIAR (AMRITSAR , IN) observed 0630 UTC 20 January 2019
Temperature: 18.0°C (64°F)
Dewpoint: 10.0°C (50°F) [RH = 59%]
Pressure (altimeter): 30.09 inches Hg (1019.0 mb)
Winds: variable direction winds at 2 MPH (2 knots; 1.0 m/s)
Visibility: 1.12 miles (1.80 km)
Ceiling: 10000 feet AGL
Clouds: scattered clouds at 4000 feet AGL
broken clouds at 10000 feet AGL
Weather: HZ  (haze)

METAR text: VIAR 200600Z VRB02KT 1800 HZ SCT040 BKN100 16/11 Q1019 NOSIG
Conditions at: VIAR (AMRITSAR , IN) observed 0600 UTC 20 January 2019
Temperature: 16.0°C (61°F)
Dewpoint: 11.0°C (52°F) [RH = 72%]
Pressure (altimeter): 30.09 inches Hg (1019.0 mb)
Winds: variable direction winds at 2 MPH (2 knots; 1.0 m/s)
Visibility: 1.12 miles (1.80 km)
Ceiling: 10000 feet AGL
Clouds: scattered clouds at 4000 feet AGL
broken clouds at 10000 feet AGL
Weather: HZ  (haze)

METAR text: VIAR 200530Z VRB02KT 1500 HZ SCT040 BKN100 15/11 Q1019 NOSIG
Conditions at: VIAR (AMRITSAR , IN) observed 0530 UTC 20 January 2019
Temperature: 15.0°C (59°F)
Dewpoint: 11.0°C (52°F) [RH = 77%]
Pressure (altimeter): 30.09 inches Hg (1019.0 mb)
Winds: variable direction winds at 2 MPH (2 knots; 1.0 m/s)
Visibility: 0.93 miles (1.50 km)
Ceiling: 10000 feet AGL
Clouds: scattered clouds at 4000 feet AGL
broken clouds at 10000 feet AGL
Weather: HZ  (haze)

METAR text: VIAR 200500Z VRB02KT 1500 BR SCT040 BKN100 14/10 Q1019 NOSIG
Conditions at: VIAR (AMRITSAR , IN) observed 0500 UTC 20 January 2019
Temperature: 14.0°C (57°F)
Dewpoint: 10.0°C (50°F) [RH = 77%]
Pressure (altimeter): 30.09 inches Hg (1019.0 mb)
Winds: variable direction winds at 2 MPH (2 knots; 1.0 m/s)
Visibility: 0.93 miles (1.50 km)
Ceiling: 10000 feet AGL
Clouds: scattered clouds at 4000 feet AGL
broken clouds at 10000 feet AGL
Weather: BR  (mist)

METAR text: VIAR 200430Z VRB02KT 1200 R34/1400 RMID/1400 R16/1300 BR SCT040 BKN100 13/10 Q1018 BECMG 1500
Conditions at: VIAR (AMRITSAR , IN) observed 0430 UTC 20 January 2019
Temperature: 13.0°C (55°F)
Dewpoint: 10.0°C (50°F) [RH = 82%]
Pressure (altimeter): 30.06 inches Hg (1018.0 mb)
Winds: variable direction winds at 2 MPH (2 knots; 1.0 m/s)
Visibility: 0.75 miles (1.21 km)
Ceiling: 10000 feet AGL
Clouds: scattered clouds at 4000 feet AGL
broken clouds at 10000 feet AGL
Weather: BR  (mist)

METAR text: VIAR 200400Z 00000KT 1000 R34/1400 RMID/1300 R16/1200 BR SCT040 BKN100 11/10 Q1018 BECMG 1500
Conditions at: VIAR (AMRITSAR , IN) observed 0400 UTC 20 January 2019
Temperature: 11.0°C (52°F)
Dewpoint: 10.0°C (50°F) [RH = 94%]
Pressure (altimeter): 30.06 inches Hg (1018.0 mb)
Winds: calm
Visibility: 0.62 miles (1.00 km)
Ceiling: 10000 feet AGL
Clouds: scattered clouds at 4000 feet AGL
broken clouds at 10000 feet AGL
Weather: BR  (mist)

METAR text: VIAR 200330Z 00000KT 1000 R34/1600 RMID/1500 R16/1300 BR SCT040 BKN100 10/09 Q1018 NOSIG
Conditions at: VIAR (AMRITSAR , IN) observed 0330 UTC 20 January 2019
Temperature: 10.0°C (50°F)
Dewpoint: 9.0°C (48°F) [RH = 93%]
Pressure (altimeter): 30.06 inches Hg (1018.0 mb)
Winds: calm
Visibility: 0.62 miles (1.00 km)
Ceiling: 10000 feet AGL
Clouds: scattered clouds at 4000 feet AGL
broken clouds at 10000 feet AGL
Weather: BR  (mist)

METAR text: VIAR 200300Z 00000KT 1000 R34/1600 RMID/1600 R16/1600 BR SCT040 BKN100 09/09 Q1018 NOSIG
Conditions at: VIAR (AMRITSAR , IN) observed 0300 UTC 20 January 2019
Temperature: 9.0°C (48°F)
Dewpoint: 9.0°C (48°F) [RH = 100%]
Pressure (altimeter): 30.06 inches Hg (1018.0 mb)
Winds: calm
Visibility: 0.62 miles (1.00 km)
Ceiling: 10000 feet AGL
Clouds: scattered clouds at 4000 feet AGL
broken clouds at 10000 feet AGL
Weather: BR  (mist)

METAR text: VIAR 200230Z 00000KT 1000 R34/1900 RMID/1900 R16/1500 BR SCT040 SCT100 09/08 Q1018 NOSIG
Conditions at: VIAR (AMRITSAR , IN) observed 0230 UTC 20 January 2019
Temperature: 9.0°C (48°F)
Dewpoint: 8.0°C (46°F) [RH = 93%]
Pressure (altimeter): 30.06 inches Hg (1018.0 mb)
Winds: calm
Visibility: 0.62 miles (1.00 km)
Ceiling: at least 12,000 feet AGL
Clouds: scattered clouds at 4000 feet AGL
scattered clouds at 10000 feet AGL
Weather: BR  (mist)

METAR text: VIAR 200200Z 00000KT 1500 BR SCT040 SCT100 09/08 Q1017 NOSIG
Conditions at: VIAR (AMRITSAR , IN) observed 0200 UTC 20 January 2019
Temperature: 9.0°C (48°F)
Dewpoint: 8.0°C (46°F) [RH = 93%]
Pressure (altimeter): 30.03 inches Hg (1017.0 mb)
Winds: calm
Visibility: 0.93 miles (1.50 km)
Ceiling: at least 12,000 feet AGL
Clouds: scattered clouds at 4000 feet AGL
scattered clouds at 10000 feet AGL
Weather: BR  (mist)

METAR text: VIAR 200130Z 00000KT 1500 BR SCT040 SCT100 09/08 Q1017 NOSIG
Conditions at: VIAR (AMRITSAR , IN) observed 0130 UTC 20 January 2019
Temperature: 9.0°C (48°F)
Dewpoint: 8.0°C (46°F) [RH = 93%]
Pressure (altimeter): 30.03 inches Hg (1017.0 mb)
Winds: calm
Visibility: 0.93 miles (1.50 km)
Ceiling: at least 12,000 feet AGL
Clouds: scattered clouds at 4000 feet AGL
scattered clouds at 10000 feet AGL
Weather: BR  (mist)

METAR text: VIAR 200100Z 00000KT 2000 BR SCT040 SCT100 10/09 Q1017 NOSIG
Conditions at: VIAR (AMRITSAR , IN) observed 0100 UTC 20 January 2019
Temperature: 10.0°C (50°F)
Dewpoint: 9.0°C (48°F) [RH = 93%]
Pressure (altimeter): 30.03 inches Hg (1017.0 mb)
Winds: calm
Visibility: 1.24 miles (2.00 km)
Ceiling: at least 12,000 feet AGL
Clouds: scattered clouds at 4000 feet AGL
scattered clouds at 10000 feet AGL
Weather: BR  (mist)

METAR text: VIAR 200030Z 00000KT 2000 BR SCT040 SCT100 09/09 Q1017 NOSIG
Conditions at: VIAR (AMRITSAR , IN) observed 0030 UTC 20 January 2019
Temperature: 9.0°C (48°F)
Dewpoint: 9.0°C (48°F) [RH = 100%]
Pressure (altimeter): 30.03 inches Hg (1017.0 mb)
Winds: calm
Visibility: 1.24 miles (2.00 km)
Ceiling: at least 12,000 feet AGL
Clouds: scattered clouds at 4000 feet AGL
scattered clouds at 10000 feet AGL
Weather: BR  (mist)

METAR text: VIAR 200000Z VRB02KT 2000 BR SCT040 SCT100 09/09 Q1017 NOSIG
Conditions at: VIAR (AMRITSAR , IN) observed 0000 UTC 20 January 2019
Temperature: 9.0°C (48°F)
Dewpoint: 9.0°C (48°F) [RH = 100%]
Pressure (altimeter): 30.03 inches Hg (1017.0 mb)
Winds: variable direction winds at 2 MPH (2 knots; 1.0 m/s)
Visibility: 1.24 miles (2.00 km)
Ceiling: at least 12,000 feet AGL
Clouds: scattered clouds at 4000 feet AGL
scattered clouds at 10000 feet AGL
Weather: BR  (mist)

METAR text: VIAR 192330Z 00000KT 2000 BR SCT040 SCT100 09/09 Q1016 NOSIG
Conditions at: VIAR (AMRITSAR , IN) observed 2330 UTC 19 January 2019
Temperature: 9.0°C (48°F)
Dewpoint: 9.0°C (48°F) [RH = 100%]
Pressure (altimeter): 30.00 inches Hg (1016.0 mb)
Winds: calm
Visibility: 1.24 miles (2.00 km)
Ceiling: at least 12,000 feet AGL
Clouds: scattered clouds at 4000 feet AGL
scattered clouds at 10000 feet AGL
Weather: BR  (mist)

METAR text: VIAR 192300Z 00000KT 2000 BR SCT040 SCT100 09/09 Q1017 NOSIG
Conditions at: VIAR (AMRITSAR , IN) observed 2300 UTC 19 January 2019
Temperature: 9.0°C (48°F)
Dewpoint: 9.0°C (48°F) [RH = 100%]
Pressure (altimeter): 30.03 inches Hg (1017.0 mb)
Winds: calm
Visibility: 1.24 miles (2.00 km)
Ceiling: at least 12,000 feet AGL
Clouds: scattered clouds at 4000 feet AGL
scattered clouds at 10000 feet AGL
Weather: BR  (mist)

METAR text: VIAR 192230Z VRB02KT 2000 BR SCT040 SCT100 10/09 Q1017 NOSIG
Conditions at: VIAR (AMRITSAR , IN) observed 2230 UTC 19 January 2019
Temperature: 10.0°C (50°F)
Dewpoint: 9.0°C (48°F) [RH = 93%]
Pressure (altimeter): 30.03 inches Hg (1017.0 mb)
Winds: variable direction winds at 2 MPH (2 knots; 1.0 m/s)
Visibility: 1.24 miles (2.00 km)
Ceiling: at least 12,000 feet AGL
Clouds: scattered clouds at 4000 feet AGL
scattered clouds at 10000 feet AGL
Weather: BR  (mist)

METAR text: VIAR 192200Z VRB02KT 2000 BR SCT040 SCT100 10/09 Q1017 NOSIG
Conditions at: VIAR (AMRITSAR , IN) observed 2200 UTC 19 January 2019
Temperature: 10.0°C (50°F)
Dewpoint: 9.0°C (48°F) [RH = 93%]
Pressure (altimeter): 30.03 inches Hg (1017.0 mb)
Winds: variable direction winds at 2 MPH (2 knots; 1.0 m/s)
Visibility: 1.24 miles (2.00 km)
Ceiling: at least 12,000 feet AGL
Clouds: scattered clouds at 4000 feet AGL
scattered clouds at 10000 feet AGL
Weather: BR  (mist)

METAR text: VIAR 192130Z VRB02KT 2000 BR SCT040 SCT100 10/09 Q1017 NOSIG
Conditions at: VIAR (AMRITSAR , IN) observed 2130 UTC 19 January 2019
Temperature: 10.0°C (50°F)
Dewpoint: 9.0°C (48°F) [RH = 93%]
Pressure (altimeter): 30.03 inches Hg (1017.0 mb)
Winds: variable direction winds at 2 MPH (2 knots; 1.0 m/s)
Visibility: 1.24 miles (2.00 km)
Ceiling: at least 12,000 feet AGL
Clouds: scattered clouds at 4000 feet AGL
scattered clouds at 10000 feet AGL
Weather: BR  (mist)

METAR text: VIAR 192100Z 00000KT 2000 BR SCT040 SCT100 10/09 Q1017 NOSIG
Conditions at: VIAR (AMRITSAR , IN) observed 2100 UTC 19 January 2019
Temperature: 10.0°C (50°F)
Dewpoint: 9.0°C (48°F) [RH = 93%]
Pressure (altimeter): 30.03 inches Hg (1017.0 mb)
Winds: calm
Visibility: 1.24 miles (2.00 km)
Ceiling: at least 12,000 feet AGL
Clouds: scattered clouds at 4000 feet AGL
scattered clouds at 10000 feet AGL
Weather: BR  (mist)

METAR text: VIAR 192030Z VRB02KT 2000 BR SCT040 SCT100 10/09 Q1017 NOSIG
Conditions at: VIAR (AMRITSAR , IN) observed 2030 UTC 19 January 2019
Temperature: 10.0°C (50°F)
Dewpoint: 9.0°C (48°F) [RH = 93%]
Pressure (altimeter): 30.03 inches Hg (1017.0 mb)
Winds: variable direction winds at 2 MPH (2 knots; 1.0 m/s)
Visibility: 1.24 miles (2.00 km)
Ceiling: at least 12,000 feet AGL
Clouds: scattered clouds at 4000 feet AGL
scattered clouds at 10000 feet AGL
Weather: BR  (mist)

METAR text: VIAR 192000Z 00000KT 2000 BR SCT040 SCT100 10/09 Q1017 NOSIG
Conditions at: VIAR (AMRITSAR , IN) observed 2000 UTC 19 January 2019
Temperature: 10.0°C (50°F)
Dewpoint: 9.0°C (48°F) [RH = 93%]
Pressure (altimeter): 30.03 inches Hg (1017.0 mb)
Winds: calm
Visibility: 1.24 miles (2.00 km)
Ceiling: at least 12,000 feet AGL
Clouds: scattered clouds at 4000 feet AGL
scattered clouds at 10000 feet AGL
Weather: BR  (mist)

METAR text: VIAR 191930Z 00000KT 2000 BR SCT040 SCT100 10/08 Q1017 NOSIG
Conditions at: VIAR (AMRITSAR , IN) observed 1930 UTC 19 January 2019
Temperature: 10.0°C (50°F)
Dewpoint: 8.0°C (46°F) [RH = 87%]
Pressure (altimeter): 30.03 inches Hg (1017.0 mb)
Winds: calm
Visibility: 1.24 miles (2.00 km)
Ceiling: at least 12,000 feet AGL
Clouds: scattered clouds at 4000 feet AGL
scattered clouds at 10000 feet AGL
Weather: BR  (mist)

METAR text: VIAR 191900Z 00000KT 2000 BR SCT040 SCT100 11/09 Q1017 NOSIG
Conditions at: VIAR (AMRITSAR , IN) observed 1900 UTC 19 January 2019
Temperature: 11.0°C (52°F)
Dewpoint: 9.0°C (48°F) [RH = 87%]
Pressure (altimeter): 30.03 inches Hg (1017.0 mb)
Winds: calm
Visibility: 1.24 miles (2.00 km)
Ceiling: at least 12,000 feet AGL
Clouds: scattered clouds at 4000 feet AGL
scattered clouds at 10000 feet AGL
Weather: BR  (mist)

METAR text: VIAR 191830Z 00000KT 2000 BR SCT040 SCT100 11/08 Q1017 NOSIG
Conditions at: VIAR (AMRITSAR , IN) observed 1830 UTC 19 January 2019
Temperature: 11.0°C (52°F)
Dewpoint: 8.0°C (46°F) [RH = 82%]
Pressure (altimeter): 30.03 inches Hg (1017.0 mb)
Winds: calm
Visibility: 1.24 miles (2.00 km)
Ceiling: at least 12,000 feet AGL
Clouds: scattered clouds at 4000 feet AGL
scattered clouds at 10000 feet AGL
Weather: BR  (mist)

Forecast for: VIAR (AMRITSAR , IN)
Text: TAF VIAR 210502Z 2106/2115 09008KT 3000 BR SCT030 BKN100
Forecast period: 0600 to 1500 UTC 21 January 2019
Forecast type: FROM: standard forecast or significant change
Winds: from the E (90 degrees) at 9 MPH (8 knots; 4.1 m/s)
Visibility: 1.86 miles (2.99 km)
Ceiling: 10000 feet AGL
Clouds: scattered clouds at 3000 feet AGL
broken clouds at 10000 feet AGL
Weather: BR  (mist)
Text: BECMG 2106/2112 1200 TSRA FEW035CB OVC080
Forecast period: 0600 to 1500 UTC 21 January 2019
Forecast type: BECOMING: Conditions expected to become as follows by 1200 UTC 21 January 2019
Winds: from the E (90 degrees) at 9 MPH (8 knots; 4.1 m/s)
Visibility: 0.75 miles (1.21 km)
Ceiling: 8000 feet AGL
Clouds: few clouds at 3500 feet AGL
overcast cloud deck at 8000 feet AGL
Weather: TSRA  (rain associated with thunderstorm(s))